Terminal Aerodrome Forecast
Issued by NWS

Home | Current Version | Previous Version | Text Only | Print | Product List | Glossary On
Versions: 1 2 3 4 5 6 7 8 9 10 11 12 13 14 15
625
FTUS41 KBTV 261131
TAFRUT
TAF
KRUT 261131Z 2612/2712 VRB03KT P6SM SKC
     FM261800 20006KT P6SM SKC
     FM270000 15006KT P6SM BKN100
     FM270800 15005KT P6SM -SHRA OVC060=

USA.gov is the U.S. government's official web portal to all federal, state and local government web resources and services.